sensor_id;sensor_type;location;lat;lon;timestamp;pressure;altitude;pressure_sealevel;temperature;humidity
74466;BME280;62916;50.044;15.938;2022-09-09T00:00:49;98811.68;;;28.13;41.93
74466;BME280;62916;50.044;15.938;2022-09-09T00:03:27;98810.02;;;28.12;41.85
74466;BME280;62916;50.044;15.938;2022-09-09T00:06:07;98811.70;;;28.11;41.77
74466;BME280;62916;50.044;15.938;2022-09-09T00:08:49;98811.67;;;28.09;41.74
74466;BME280;62916;50.044;15.938;2022-09-09T00:11:28;98814.98;;;28.07;41.92
74466;BME280;62916;50.044;15.938;2022-09-09T00:14:06;98813.91;;;28.06;41.75
74466;BME280;62916;50.044;15.938;2022-09-09T00:16:47;98817.00;;;28.06;41.78
74466;BME280;62916;50.044;15.938;2022-09-09T00:19:24;98809.81;;;28.05;41.82
74466;BME280;62916;50.044;15.938;2022-09-09T00:22:07;98808.73;;;28.05;41.74
74466;BME280;62916;50.044;15.938;2022-09-09T00:24:46;98811.33;;;28.03;41.74
74466;BME280;62916;50.044;15.938;2022-09-09T00:27:23;98810.89;;;28.02;41.91
74466;BME280;62916;50.044;15.938;2022-09-09T00:30:12;98807.05;;;28.02;41.76
74466;BME280;62916;50.044;15.938;2022-09-09T00:32:44;98812.23;;;28.01;41.53
74466;BME280;62916;50.044;15.938;2022-09-09T00:35:21;98818.10;;;28.01;41.52
74466;BME280;62916;50.044;15.938;2022-09-09T00:37:56;98817.12;;;28.00;41.61
74466;BME280;62916;50.044;15.938;2022-09-09T00:40:31;98817.77;;;28.01;41.56
74466;BME280;62916;50.044;15.938;2022-09-09T00:43:24;98815.08;;;27.99;41.54
74466;BME280;62916;50.044;15.938;2022-09-09T00:46:21;98813.33;;;27.97;41.37
74466;BME280;62916;50.044;15.938;2022-09-09T00:49:07;98812.27;;;27.97;41.51
74466;BME280;62916;50.044;15.938;2022-09-09T00:51:48;98813.30;;;27.96;41.70
74466;BME280;62916;50.044;15.938;2022-09-09T00:54:35;98817.80;;;27.97;41.44
74466;BME280;62916;50.044;15.938;2022-09-09T00:57:18;98819.02;;;27.96;41.43
74466;BME280;62916;50.044;15.938;2022-09-09T00:59:52;98819.73;;;27.96;41.47
74466;BME280;62916;50.044;15.938;2022-09-09T01:02:35;98815.19;;;27.93;41.38
74466;BME280;62916;50.044;15.938;2022-09-09T01:05:15;98823.05;;;27.95;41.40
74466;BME280;62916;50.044;15.938;2022-09-09T01:07:50;98824.73;;;27.93;41.37
74466;BME280;62916;50.044;15.938;2022-09-09T01:10:33;98829.03;;;27.93;41.36
74466;BME280;62916;50.044;15.938;2022-09-09T01:13:14;98831.38;;;27.92;41.34
74466;BME280;62916;50.044;15.938;2022-09-09T01:15:48;98831.27;;;27.91;41.13
74466;BME280;62916;50.044;15.938;2022-09-09T01:18:23;98837.19;;;27.89;41.42
74466;BME280;62916;50.044;15.938;2022-09-09T01:21:04;98838.80;;;27.88;41.35
74466;BME280;62916;50.044;15.938;2022-09-09T01:23:52;98845.11;;;27.86;41.17
74466;BME280;62916;50.044;15.938;2022-09-09T01:26:32;98844.34;;;27.84;41.09
74466;BME280;62916;50.044;15.938;2022-09-09T01:29:09;98848.56;;;27.83;41.55
74466;BME280;62916;50.044;15.938;2022-09-09T01:31:42;98843.14;;;27.82;41.24
74466;BME280;62916;50.044;15.938;2022-09-09T01:34:14;98837.48;;;27.79;41.25
74466;BME280;62916;50.044;15.938;2022-09-09T01:36:48;98845.27;;;27.78;41.22
74466;BME280;62916;50.044;15.938;2022-09-09T01:39:21;98844.75;;;27.76;41.18
74466;BME280;62916;50.044;15.938;2022-09-09T01:41:52;98846.52;;;27.75;41.34
74466;BME280;62916;50.044;15.938;2022-09-09T01:44:24;98844.22;;;27.74;41.27
74466;BME280;62916;50.044;15.938;2022-09-09T01:46:55;98842.06;;;27.73;41.15
74466;BME280;62916;50.044;15.938;2022-09-09T01:49:26;98843.67;;;27.72;41.29
74466;BME280;62916;50.044;15.938;2022-09-09T01:52:15;98843.80;;;27.70;41.22
74466;BME280;62916;50.044;15.938;2022-09-09T01:54:46;98841.02;;;27.70;41.28
74466;BME280;62916;50.044;15.938;2022-09-09T01:57:22;98842.88;;;27.68;41.09
74466;BME280;62916;50.044;15.938;2022-09-09T02:00:04;98843.36;;;27.69;40.99
74466;BME280;62916;50.044;15.938;2022-09-09T02:02:41;98846.34;;;27.66;41.09
74466;BME280;62916;50.044;15.938;2022-09-09T02:05:26;98839.86;;;27.64;41.06
74466;BME280;62916;50.044;15.938;2022-09-09T02:08:03;98841.15;;;27.64;41.35
74466;BME280;62916;50.044;15.938;2022-09-09T02:10:41;98840.76;;;27.65;41.28
74466;BME280;62916;50.044;15.938;2022-09-09T02:13:15;98839.03;;;27.64;41.09
74466;BME280;62916;50.044;15.938;2022-09-09T02:15:46;98841.54;;;27.63;41.04
74466;BME280;62916;50.044;15.938;2022-09-09T02:18:21;98838.34;;;27.59;41.15
74466;BME280;62916;50.044;15.938;2022-09-09T02:20:54;98846.65;;;27.59;41.08
74466;BME280;62916;50.044;15.938;2022-09-09T02:23:27;98840.95;;;27.59;41.07
74466;BME280;62916;50.044;15.938;2022-09-09T02:26:00;98844.29;;;27.59;40.97
74466;BME280;62916;50.044;15.938;2022-09-09T02:28:32;98842.00;;;27.58;41.26
74466;BME280;62916;50.044;15.938;2022-09-09T02:31:06;98849.24;;;27.58;41.23
74466;BME280;62916;50.044;15.938;2022-09-09T02:33:43;98850.95;;;27.58;41.17
74466;BME280;62916;50.044;15.938;2022-09-09T02:36:16;98848.58;;;27.58;40.96
74466;BME280;62916;50.044;15.938;2022-09-09T02:38:49;98849.62;;;27.56;41.01
74466;BME280;62916;50.044;15.938;2022-09-09T02:41:26;98846.45;;;27.53;40.83
74466;BME280;62916;50.044;15.938;2022-09-09T02:43:59;98854.70;;;27.55;41.12
74466;BME280;62916;50.044;15.938;2022-09-09T02:46:43;98853.02;;;27.56;41.05
74466;BME280;62916;50.044;15.938;2022-09-09T02:49:22;98855.71;;;27.56;40.84
74466;BME280;62916;50.044;15.938;2022-09-09T02:52:03;98852.77;;;27.55;40.74
74466;BME280;62916;50.044;15.938;2022-09-09T02:54:38;98857.02;;;27.53;40.92
74466;BME280;62916;50.044;15.938;2022-09-09T02:57:12;98853.30;;;27.51;40.97
74466;BME280;62916;50.044;15.938;2022-09-09T02:59:46;98850.27;;;27.51;41.11
74466;BME280;62916;50.044;15.938;2022-09-09T03:02:17;98851.11;;;27.52;40.87
74466;BME280;62916;50.044;15.938;2022-09-09T03:04:48;98855.20;;;27.49;40.75
74466;BME280;62916;50.044;15.938;2022-09-09T03:07:21;98856.70;;;27.46;40.84
74466;BME280;62916;50.044;15.938;2022-09-09T03:09:52;98858.90;;;27.46;40.96
74466;BME280;62916;50.044;15.938;2022-09-09T03:12:24;98861.32;;;27.45;41.11
74466;BME280;62916;50.044;15.938;2022-09-09T03:14:54;98859.48;;;27.44;40.87
74466;BME280;62916;50.044;15.938;2022-09-09T03:17:25;98858.08;;;27.43;40.96
74466;BME280;62916;50.044;15.938;2022-09-09T03:19:57;98852.89;;;27.40;40.81
74466;BME280;62916;50.044;15.938;2022-09-09T03:22:28;98854.98;;;27.40;41.10
74466;BME280;62916;50.044;15.938;2022-09-09T03:24:58;98855.39;;;27.39;40.86
74466;BME280;62916;50.044;15.938;2022-09-09T03:27:29;98856.93;;;27.39;41.06
74466;BME280;62916;50.044;15.938;2022-09-09T03:30:00;98854.98;;;27.39;41.24
74466;BME280;62916;50.044;15.938;2022-09-09T03:32:33;98857.11;;;27.39;40.81
74466;BME280;62916;50.044;15.938;2022-09-09T03:35:04;98857.73;;;27.41;40.76
74466;BME280;62916;50.044;15.938;2022-09-09T03:37:35;98861.73;;;27.42;40.94
74466;BME280;62916;50.044;15.938;2022-09-09T03:40:07;98860.61;;;27.46;40.71
74466;BME280;62916;50.044;15.938;2022-09-09T03:42:40;98859.09;;;27.48;40.73
74466;BME280;62916;50.044;15.938;2022-09-09T03:45:11;98860.98;;;27.49;40.73
74466;BME280;62916;50.044;15.938;2022-09-09T03:47:42;98859.69;;;27.50;40.70
74466;BME280;62916;50.044;15.938;2022-09-09T03:50:13;98854.66;;;27.50;40.74
74466;BME280;62916;50.044;15.938;2022-09-09T03:52:44;98862.06;;;27.50;40.63
74466;BME280;62916;50.044;15.938;2022-09-09T03:55:17;98860.37;;;27.51;40.96
74466;BME280;62916;50.044;15.938;2022-09-09T03:57:48;98863.95;;;27.51;40.92
74466;BME280;62916;50.044;15.938;2022-09-09T04:00:19;98864.73;;;27.49;41.21
74466;BME280;62916;50.044;15.938;2022-09-09T04:02:49;98866.95;;;27.47;40.88
74466;BME280;62916;50.044;15.938;2022-09-09T04:05:23;98860.63;;;27.44;40.91
74466;BME280;62916;50.044;15.938;2022-09-09T04:07:54;98862.96;;;27.43;40.81
74466;BME280;62916;50.044;15.938;2022-09-09T04:10:25;98862.17;;;27.40;40.86
74466;BME280;62916;50.044;15.938;2022-09-09T04:12:56;98859.47;;;27.40;40.87
74466;BME280;62916;50.044;15.938;2022-09-09T04:15:26;98860.44;;;27.39;40.70
74466;BME280;62916;50.044;15.938;2022-09-09T04:17:57;98862.27;;;27.37;40.60
74466;BME280;62916;50.044;15.938;2022-09-09T04:20:27;98863.02;;;27.35;40.95
74466;BME280;62916;50.044;15.938;2022-09-09T04:22:59;98864.69;;;27.33;40.76
74466;BME280;62916;50.044;15.938;2022-09-09T04:25:30;98867.85;;;27.32;40.70
74466;BME280;62916;50.044;15.938;2022-09-09T04:28:02;98867.95;;;27.30;40.87
74466;BME280;62916;50.044;15.938;2022-09-09T04:30:33;98863.70;;;27.29;40.61
74466;BME280;62916;50.044;15.938;2022-09-09T04:33:05;98863.36;;;27.28;40.72
74466;BME280;62916;50.044;15.938;2022-09-09T04:35:36;98863.25;;;27.27;40.70
74466;BME280;62916;50.044;15.938;2022-09-09T04:38:07;98861.66;;;27.25;40.61
74466;BME280;62916;50.044;15.938;2022-09-09T04:40:38;98870.59;;;27.24;40.64
74466;BME280;62916;50.044;15.938;2022-09-09T04:43:12;98873.55;;;27.22;40.71
74466;BME280;62916;50.044;15.938;2022-09-09T04:45:46;98874.77;;;27.22;40.53
74466;BME280;62916;50.044;15.938;2022-09-09T04:48:17;98879.55;;;27.21;40.26
74466;BME280;62916;50.044;15.938;2022-09-09T04:50:57;98880.31;;;27.19;40.29
74466;BME280;62916;50.044;15.938;2022-09-09T04:53:26;98880.20;;;27.17;40.23
74466;BME280;62916;50.044;15.938;2022-09-09T04:56:04;98876.19;;;27.13;40.44
74466;BME280;62916;50.044;15.938;2022-09-09T04:58:36;98873.67;;;27.10;40.37
74466;BME280;62916;50.044;15.938;2022-09-09T05:01:09;98874.02;;;27.11;40.16
74466;BME280;62916;50.044;15.938;2022-09-09T05:03:40;98865.04;;;27.09;40.06
74466;BME280;62916;50.044;15.938;2022-09-09T05:06:13;98869.16;;;27.09;40.26
74466;BME280;62916;50.044;15.938;2022-09-09T05:08:45;98875.02;;;27.08;39.97
74466;BME280;62916;50.044;15.938;2022-09-09T05:11:18;98882.92;;;27.09;39.95
74466;BME280;62916;50.044;15.938;2022-09-09T05:13:50;98882.36;;;27.05;39.73
74466;BME280;62916;50.044;15.938;2022-09-09T05:16:21;98888.32;;;27.06;39.75
74466;BME280;62916;50.044;15.938;2022-09-09T05:18:53;98888.98;;;27.06;40.04
74466;BME280;62916;50.044;15.938;2022-09-09T05:21:25;98897.98;;;27.06;39.94
74466;BME280;62916;50.044;15.938;2022-09-09T05:23:55;98904.96;;;27.05;39.75
74466;BME280;62916;50.044;15.938;2022-09-09T05:26:27;98901.52;;;27.01;39.92
74466;BME280;62916;50.044;15.938;2022-09-09T05:28:58;98897.56;;;27.02;39.59
74466;BME280;62916;50.044;15.938;2022-09-09T05:31:31;98896.52;;;27.00;39.73
74466;BME280;62916;50.044;15.938;2022-09-09T05:34:02;98902.09;;;27.01;39.67
74466;BME280;62916;50.044;15.938;2022-09-09T05:36:33;98907.62;;;27.01;39.97
74466;BME280;62916;50.044;15.938;2022-09-09T05:39:04;98901.91;;;27.01;40.22
74466;BME280;62916;50.044;15.938;2022-09-09T05:41:35;98893.99;;;27.00;39.94
74466;BME280;62916;50.044;15.938;2022-09-09T05:44:06;98893.98;;;26.99;39.86
74466;BME280;62916;50.044;15.938;2022-09-09T05:46:36;98898.02;;;26.98;40.05
74466;BME280;62916;50.044;15.938;2022-09-09T05:49:07;98899.86;;;26.97;39.96
74466;BME280;62916;50.044;15.938;2022-09-09T05:51:38;98900.76;;;26.97;40.11
74466;BME280;62916;50.044;15.938;2022-09-09T05:54:09;98901.07;;;26.96;40.08
74466;BME280;62916;50.044;15.938;2022-09-09T05:56:41;98904.09;;;26.96;40.24
74466;BME280;62916;50.044;15.938;2022-09-09T05:59:12;98908.88;;;26.96;39.88
74466;BME280;62916;50.044;15.938;2022-09-09T06:01:44;98906.77;;;26.96;40.23
74466;BME280;62916;50.044;15.938;2022-09-09T06:04:15;98909.05;;;26.96;40.35
74466;BME280;62916;50.044;15.938;2022-09-09T06:06:46;98909.05;;;26.96;40.00
74466;BME280;62916;50.044;15.938;2022-09-09T06:09:18;98914.51;;;26.97;40.10
74466;BME280;62916;50.044;15.938;2022-09-09T06:11:48;98921.67;;;26.97;40.59
74466;BME280;62916;50.044;15.938;2022-09-09T06:14:19;98915.65;;;26.97;40.33
74466;BME280;62916;50.044;15.938;2022-09-09T06:16:51;98908.49;;;26.97;40.46
74466;BME280;62916;50.044;15.938;2022-09-09T06:19:22;98908.02;;;26.97;40.53
74466;BME280;62916;50.044;15.938;2022-09-09T06:21:53;98905.69;;;26.99;40.33
74466;BME280;62916;50.044;15.938;2022-09-09T06:24:24;98909.06;;;27.01;40.43
74466;BME280;62916;50.044;15.938;2022-09-09T06:26:55;98907.39;;;27.01;40.39
74466;BME280;62916;50.044;15.938;2022-09-09T06:29:26;98898.56;;;27.03;40.69
74466;BME280;62916;50.044;15.938;2022-09-09T06:31:57;98896.67;;;27.03;40.48
74466;BME280;62916;50.044;15.938;2022-09-09T06:34:28;98902.02;;;27.02;40.59
74466;BME280;62916;50.044;15.938;2022-09-09T06:36:59;98897.56;;;27.02;40.47
74466;BME280;62916;50.044;15.938;2022-09-09T06:39:30;98896.42;;;27.02;40.73
74466;BME280;62916;50.044;15.938;2022-09-09T06:42:01;98900.58;;;27.02;40.63
74466;BME280;62916;50.044;15.938;2022-09-09T06:44:31;98901.40;;;27.03;40.73
74466;BME280;62916;50.044;15.938;2022-09-09T06:47:04;98897.65;;;27.02;40.87
74466;BME280;62916;50.044;15.938;2022-09-09T06:49:35;98894.40;;;27.00;40.76
74466;BME280;62916;50.044;15.938;2022-09-09T06:52:06;98897.45;;;27.01;40.84
74466;BME280;62916;50.044;15.938;2022-09-09T06:54:38;98902.14;;;27.03;40.98
74466;BME280;62916;50.044;15.938;2022-09-09T06:57:10;98904.27;;;27.03;40.79
74466;BME280;62916;50.044;15.938;2022-09-09T07:00:01;98899.91;;;27.02;41.30
74466;BME280;62916;50.044;15.938;2022-09-09T07:02:32;98897.98;;;27.03;41.09
74466;BME280;62916;50.044;15.938;2022-09-09T07:05:09;98898.73;;;27.03;41.19
74466;BME280;62916;50.044;15.938;2022-09-09T07:07:41;98902.73;;;27.03;41.02
74466;BME280;62916;50.044;15.938;2022-09-09T07:10:12;98907.13;;;27.04;40.80
74466;BME280;62916;50.044;15.938;2022-09-09T07:12:43;98909.20;;;27.05;41.07
74466;BME280;62916;50.044;15.938;2022-09-09T07:15:14;98905.85;;;27.05;41.42
74466;BME280;62916;50.044;15.938;2022-09-09T07:17:45;98905.13;;;27.05;41.35
74466;BME280;62916;50.044;15.938;2022-09-09T07:20:16;98908.61;;;27.02;41.07
74466;BME280;62916;50.044;15.938;2022-09-09T07:22:47;98915.80;;;27.06;41.25
74466;BME280;62916;50.044;15.938;2022-09-09T07:25:18;98919.45;;;27.06;41.35
74466;BME280;62916;50.044;15.938;2022-09-09T07:27:50;98915.55;;;27.06;41.40
74466;BME280;62916;50.044;15.938;2022-09-09T07:30:21;98911.77;;;27.08;41.36
74466;BME280;62916;50.044;15.938;2022-09-09T07:32:56;98904.52;;;27.08;41.19
74466;BME280;62916;50.044;15.938;2022-09-09T07:35:28;98906.31;;;27.08;41.44
74466;BME280;62916;50.044;15.938;2022-09-09T07:38:00;98908.39;;;27.10;41.49
74466;BME280;62916;50.044;15.938;2022-09-09T07:40:30;98910.98;;;27.13;41.58
74466;BME280;62916;50.044;15.938;2022-09-09T07:43:01;98906.40;;;27.14;41.25
74466;BME280;62916;50.044;15.938;2022-09-09T07:45:34;98901.25;;;27.16;41.26
74466;BME280;62916;50.044;15.938;2022-09-09T07:48:05;98905.16;;;27.17;41.22
74466;BME280;62916;50.044;15.938;2022-09-09T07:50:36;98909.23;;;27.18;41.38
74466;BME280;62916;50.044;15.938;2022-09-09T07:53:07;98909.94;;;27.20;41.46
74466;BME280;62916;50.044;15.938;2022-09-09T07:55:38;98913.36;;;27.20;41.43
74466;BME280;62916;50.044;15.938;2022-09-09T07:58:09;98913.94;;;27.21;41.27
74466;BME280;62916;50.044;15.938;2022-09-09T08:00:39;98908.65;;;27.21;41.34
74466;BME280;62916;50.044;15.938;2022-09-09T08:03:12;98909.08;;;27.21;41.34
74466;BME280;62916;50.044;15.938;2022-09-09T08:05:43;98909.90;;;27.22;41.52
74466;BME280;62916;50.044;15.938;2022-09-09T08:08:14;98917.25;;;27.23;41.15
74466;BME280;62916;50.044;15.938;2022-09-09T08:10:45;98917.45;;;27.24;41.12
74466;BME280;62916;50.044;15.938;2022-09-09T08:13:16;98919.44;;;27.26;41.44
74466;BME280;62916;50.044;15.938;2022-09-09T08:15:47;98917.66;;;27.26;41.28
74466;BME280;62916;50.044;15.938;2022-09-09T08:18:19;98918.08;;;27.26;41.13
74466;BME280;62916;50.044;15.938;2022-09-09T08:20:51;98919.15;;;27.27;41.46
74466;BME280;62916;50.044;15.938;2022-09-09T08:23:22;98920.94;;;27.26;41.30
74466;BME280;62916;50.044;15.938;2022-09-09T08:25:53;98916.23;;;27.27;41.35
74466;BME280;62916;50.044;15.938;2022-09-09T08:28:24;98914.13;;;27.28;41.13
74466;BME280;62916;50.044;15.938;2022-09-09T08:30:55;98912.86;;;27.30;41.27
74466;BME280;62916;50.044;15.938;2022-09-09T08:33:26;98912.45;;;27.30;41.09
74466;BME280;62916;50.044;15.938;2022-09-09T08:35:57;98910.52;;;27.31;41.28
74466;BME280;62916;50.044;15.938;2022-09-09T08:38:28;98908.41;;;27.31;41.14
74466;BME280;62916;50.044;15.938;2022-09-09T08:41:07;98913.02;;;27.33;41.08
74466;BME280;62916;50.044;15.938;2022-09-09T08:43:44;98912.84;;;27.35;41.28
74466;BME280;62916;50.044;15.938;2022-09-09T08:46:20;98910.88;;;27.35;41.31
74466;BME280;62916;50.044;15.938;2022-09-09T08:48:56;98919.32;;;27.38;40.99
74466;BME280;62916;50.044;15.938;2022-09-09T08:51:30;98917.46;;;27.39;41.22
74466;BME280;62916;50.044;15.938;2022-09-09T08:54:04;98926.42;;;27.45;41.26
74466;BME280;62916;50.044;15.938;2022-09-09T08:56:35;98928.46;;;27.50;40.65
74466;BME280;62916;50.044;15.938;2022-09-09T08:59:07;98931.21;;;27.49;41.10
74466;BME280;62916;50.044;15.938;2022-09-09T09:01:51;98931.16;;;27.50;40.85
74466;BME280;62916;50.044;15.938;2022-09-09T09:04:51;98930.83;;;27.54;40.89
74466;BME280;62916;50.044;15.938;2022-09-09T09:07:33;98924.59;;;27.57;40.91
74466;BME280;62916;50.044;15.938;2022-09-09T09:10:12;98928.05;;;27.60;40.76
74466;BME280;62916;50.044;15.938;2022-09-09T09:13:10;98930.46;;;27.61;40.82
74466;BME280;62916;50.044;15.938;2022-09-09T09:15:44;98924.53;;;27.65;40.66
74466;BME280;62916;50.044;15.938;2022-09-09T09:18:18;98917.94;;;27.68;40.62
74466;BME280;62916;50.044;15.938;2022-09-09T09:20:58;98914.92;;;27.69;40.68
74466;BME280;62916;50.044;15.938;2022-09-09T09:23:41;98916.55;;;27.68;40.67
74466;BME280;62916;50.044;15.938;2022-09-09T09:26:14;98914.52;;;27.68;40.81
74466;BME280;62916;50.044;15.938;2022-09-09T09:28:45;98911.02;;;27.68;40.58
74466;BME280;62916;50.044;15.938;2022-09-09T09:31:18;98907.03;;;27.69;40.86
74466;BME280;62916;50.044;15.938;2022-09-09T09:33:52;98907.52;;;27.69;40.86
74466;BME280;62916;50.044;15.938;2022-09-09T09:36:25;98906.72;;;27.70;40.62
74466;BME280;62916;50.044;15.938;2022-09-09T09:39:04;98903.51;;;27.67;40.75
74466;BME280;62916;50.044;15.938;2022-09-09T09:41:55;98910.44;;;27.65;40.75
74466;BME280;62916;50.044;15.938;2022-09-09T09:44:28;98906.52;;;27.64;40.79
74466;BME280;62916;50.044;15.938;2022-09-09T09:47:12;98911.91;;;27.65;40.63
74466;BME280;62916;50.044;15.938;2022-09-09T09:49:54;98910.92;;;27.64;40.97
74466;BME280;62916;50.044;15.938;2022-09-09T09:52:26;98904.84;;;27.65;40.82
74466;BME280;62916;50.044;15.938;2022-09-09T09:54:58;98904.69;;;27.66;40.74
74466;BME280;62916;50.044;15.938;2022-09-09T09:57:36;98906.95;;;27.65;41.13
74466;BME280;62916;50.044;15.938;2022-09-09T10:00:15;98902.36;;;27.67;40.97
74466;BME280;62916;50.044;15.938;2022-09-09T10:02:47;98897.10;;;27.69;40.91
74466;BME280;62916;50.044;15.938;2022-09-09T10:05:22;98888.35;;;27.71;40.82
74466;BME280;62916;50.044;15.938;2022-09-09T10:08:09;98884.21;;;27.72;40.87
74466;BME280;62916;50.044;15.938;2022-09-09T10:10:50;98885.21;;;27.73;40.81
74466;BME280;62916;50.044;15.938;2022-09-09T10:13:28;98895.23;;;27.73;40.95
74466;BME280;62916;50.044;15.938;2022-09-09T10:16:18;98897.92;;;27.73;40.80
74466;BME280;62916;50.044;15.938;2022-09-09T10:19:00;98894.68;;;27.74;40.82
74466;BME280;62916;50.044;15.938;2022-09-09T10:24:47;98889.70;;;27.76;40.77
74466;BME280;62916;50.044;15.938;2022-09-09T10:27:27;98885.66;;;27.78;40.83
74466;BME280;62916;50.044;15.938;2022-09-09T10:30:06;98881.68;;;27.80;40.77
74466;BME280;62916;50.044;15.938;2022-09-09T10:32:47;98880.86;;;27.79;40.65
74466;BME280;62916;50.044;15.938;2022-09-09T10:35:31;98878.61;;;27.80;40.53
74466;BME280;62916;50.044;15.938;2022-09-09T10:38:12;98878.90;;;27.82;40.60
74466;BME280;62916;50.044;15.938;2022-09-09T10:41:05;98873.86;;;27.83;40.55
74466;BME280;62916;50.044;15.938;2022-09-09T10:43:59;98867.92;;;27.79;40.65
74466;BME280;62916;50.044;15.938;2022-09-09T10:46:39;98870.48;;;27.80;40.69
74466;BME280;62916;50.044;15.938;2022-09-09T10:49:23;98873.14;;;27.79;40.84
74466;BME280;62916;50.044;15.938;2022-09-09T10:52:04;98876.00;;;27.80;40.76
74466;BME280;62916;50.044;15.938;2022-09-09T10:54:49;98877.34;;;27.82;40.65
74466;BME280;62916;50.044;15.938;2022-09-09T10:57:29;98878.54;;;27.84;40.57
74466;BME280;62916;50.044;15.938;2022-09-09T11:00:05;98878.04;;;27.83;40.68
74466;BME280;62916;50.044;15.938;2022-09-09T11:02:37;98880.38;;;27.82;40.77
74466;BME280;62916;50.044;15.938;2022-09-09T11:05:16;98876.95;;;27.82;40.57
74466;BME280;62916;50.044;15.938;2022-09-09T11:07:50;98878.54;;;27.84;40.72
74466;BME280;62916;50.044;15.938;2022-09-09T11:10:29;98875.01;;;27.87;40.66
74466;BME280;62916;50.044;15.938;2022-09-09T11:13:11;98873.04;;;27.86;40.53
74466;BME280;62916;50.044;15.938;2022-09-09T11:15:49;98868.25;;;27.87;40.66
74466;BME280;62916;50.044;15.938;2022-09-09T11:18:22;98871.67;;;27.86;40.83
74466;BME280;62916;50.044;15.938;2022-09-09T11:20:56;98867.84;;;27.82;40.70
74466;BME280;62916;50.044;15.938;2022-09-09T11:23:37;98869.02;;;27.84;40.49
74466;BME280;62916;50.044;15.938;2022-09-09T11:26:16;98867.64;;;27.85;40.67
74466;BME280;62916;50.044;15.938;2022-09-09T11:29:02;98869.00;;;27.84;40.77
74466;BME280;62916;50.044;15.938;2022-09-09T11:31:46;98867.45;;;27.84;40.73
74466;BME280;62916;50.044;15.938;2022-09-09T11:34:42;98868.35;;;27.83;40.54
74466;BME280;62916;50.044;15.938;2022-09-09T11:37:29;98866.82;;;27.84;40.51
74466;BME280;62916;50.044;15.938;2022-09-09T11:40:17;98865.05;;;27.85;40.64
74466;BME280;62916;50.044;15.938;2022-09-09T11:42:49;98857.98;;;27.86;40.76
74466;BME280;62916;50.044;15.938;2022-09-09T11:45:30;98853.15;;;27.85;40.65
74466;BME280;62916;50.044;15.938;2022-09-09T11:48:03;98848.05;;;27.83;40.49
74466;BME280;62916;50.044;15.938;2022-09-09T11:50:37;98853.71;;;27.84;40.62
74466;BME280;62916;50.044;15.938;2022-09-09T11:53:23;98853.21;;;27.84;40.69
74466;BME280;62916;50.044;15.938;2022-09-09T11:56:06;98846.77;;;27.84;40.65
74466;BME280;62916;50.044;15.938;2022-09-09T11:58:41;98851.61;;;27.85;40.74
74466;BME280;62916;50.044;15.938;2022-09-09T12:04:21;98849.83;;;27.86;40.64
74466;BME280;62916;50.044;15.938;2022-09-09T12:07:01;98848.70;;;27.86;40.55
74466;BME280;62916;50.044;15.938;2022-09-09T12:09:46;98848.36;;;27.85;40.48
74466;BME280;62916;50.044;15.938;2022-09-09T12:12:26;98850.48;;;27.85;40.51
74466;BME280;62916;50.044;15.938;2022-09-09T12:15:00;98851.13;;;27.86;40.56
74466;BME280;62916;50.044;15.938;2022-09-09T12:17:36;98850.64;;;27.85;40.32
74466;BME280;62916;50.044;15.938;2022-09-09T12:20:14;98850.38;;;27.85;40.56
74466;BME280;62916;50.044;15.938;2022-09-09T12:23:19;98846.20;;;27.84;40.46
74466;BME280;62916;50.044;15.938;2022-09-09T12:26:00;98846.23;;;27.82;40.44
74466;BME280;62916;50.044;15.938;2022-09-09T12:28:44;98842.02;;;27.82;40.76
74466;BME280;62916;50.044;15.938;2022-09-09T12:31:20;98842.42;;;27.82;40.59
74466;BME280;62916;50.044;15.938;2022-09-09T12:33:53;98839.84;;;27.83;40.54
74466;BME280;62916;50.044;15.938;2022-09-09T12:36:27;98836.35;;;27.84;40.51
74466;BME280;62916;50.044;15.938;2022-09-09T12:39:10;98834.98;;;27.84;40.66
74466;BME280;62916;50.044;15.938;2022-09-09T12:41:50;98830.19;;;27.85;40.45
74466;BME280;62916;50.044;15.938;2022-09-09T12:44:27;98825.93;;;27.84;40.61
74466;BME280;62916;50.044;15.938;2022-09-09T12:47:00;98817.87;;;27.84;40.54
74466;BME280;62916;50.044;15.938;2022-09-09T12:49:34;98814.82;;;27.82;40.70
74466;BME280;62916;50.044;15.938;2022-09-09T12:52:13;98813.35;;;27.82;40.33
74466;BME280;62916;50.044;15.938;2022-09-09T12:54:46;98810.17;;;27.82;40.44
74466;BME280;62916;50.044;15.938;2022-09-09T12:57:17;98804.61;;;27.81;40.42
74466;BME280;62916;50.044;15.938;2022-09-09T12:59:48;98806.16;;;27.81;40.51
74466;BME280;62916;50.044;15.938;2022-09-09T13:02:22;98805.77;;;27.81;40.59
74466;BME280;62916;50.044;15.938;2022-09-09T13:04:54;98808.69;;;27.81;40.74
74466;BME280;62916;50.044;15.938;2022-09-09T13:07:25;98814.39;;;27.81;40.67
74466;BME280;62916;50.044;15.938;2022-09-09T13:09:56;98814.51;;;27.83;40.33
74466;BME280;62916;50.044;15.938;2022-09-09T13:12:28;98819.67;;;27.84;40.65
74466;BME280;62916;50.044;15.938;2022-09-09T13:14:59;98812.42;;;27.84;40.46
74466;BME280;62916;50.044;15.938;2022-09-09T13:17:31;98805.34;;;27.85;40.51
74466;BME280;62916;50.044;15.938;2022-09-09T13:20:02;98807.13;;;27.84;40.45
74466;BME280;62916;50.044;15.938;2022-09-09T13:22:36;98805.77;;;27.85;40.43
74466;BME280;62916;50.044;15.938;2022-09-09T13:25:19;98802.66;;;27.85;40.64
74466;BME280;62916;50.044;15.938;2022-09-09T13:27:57;98797.69;;;27.84;40.41
74466;BME280;62916;50.044;15.938;2022-09-09T13:30:30;98798.36;;;27.86;40.35
74466;BME280;62916;50.044;15.938;2022-09-09T13:33:18;98793.06;;;27.85;40.27
74466;BME280;62916;50.044;15.938;2022-09-09T13:35:54;98791.17;;;27.84;40.45
74466;BME280;62916;50.044;15.938;2022-09-09T13:38:25;98791.27;;;27.85;40.47